Time;durP1;ratioP1;P1;durP2;ratioP2;P2;SDS_P1;SDS_P2;PMS_P1;PMS_P2;Temp;Humidity;BMP_temperature;BMP_pressure;BME280_temperature;BME280_humidity;BME280_pressure;Samples;Min_cycle;Max_cycle;Signal;HPM_P1;HPM_P2
2021/04/19 00:01:26;;;;;;;1.50;1.40;;;22.60;49.90;;;;;;5041708;28;20402;-82
2021/04/19 00:07:21;;;;;;;1.73;1.27;;;22.60;49.90;;;;;;5044985;28;20414;-83
2021/04/19 00:09:47;;;;;;;1.70;1.40;;;22.60;50.00;;;;;;5022376;28;20402;-83
2021/04/19 00:12:13;;;;;;;1.90;1.40;;;22.50;49.90;;;;;;5021836;28;20435;-83
2021/04/19 00:14:40;;;;;;;1.30;1.20;;;22.50;50.00;;;;;;5038834;28;20151;-83
2021/04/19 00:17:06;;;;;;;1.77;1.27;;;22.50;50.00;;;;;;5038568;28;20403;-83
2021/04/19 00:19:32;;;;;;;1.83;1.40;;;22.50;50.00;;;;;;5038199;28;20391;-83
2021/04/19 00:21:59;;;;;;;2.03;1.37;;;22.50;50.00;;;;;;5038479;28;20155;-83
2021/04/19 00:24:25;;;;;;;2.67;1.70;;;22.50;50.00;;;;;;5020168;28;20399;-83
2021/04/19 00:26:51;;;;;;;1.60;1.20;;;22.50;50.00;;;;;;5038043;28;20175;-83
2021/04/19 00:29:35;;;;;;;1.67;1.40;;;22.50;50.00;;;;;;5020890;28;20239;-83
2021/04/19 00:32:05;;;;;;;1.40;1.10;;;22.50;50.00;;;;;;5020793;28;20191;-83
2021/04/19 00:34:31;;;;;;;1.30;1.20;;;22.40;50.00;;;;;;5020881;28;20408;-83
2021/04/19 00:37:00;;;;;;;1.30;1.20;;;22.40;50.00;;;;;;5021166;28;20427;-83
2021/04/19 00:39:25;;;;;;;1.57;1.43;;;22.50;50.10;;;;;;5038156;28;20384;-82
2021/04/19 00:41:51;;;;;;;1.63;1.30;;;22.40;50.00;;;;;;5020888;28;20417;-82
2021/04/19 00:44:18;;;;;;;1.30;1.13;;;22.40;50.00;;;;;;5020750;28;20160;-82
2021/04/19 00:46:45;;;;;;;1.87;1.27;;;22.40;50.00;;;;;;5020848;28;20415;-81
2021/04/19 00:49:11;;;;;;;1.30;1.20;;;22.40;50.00;;;;;;5038043;28;20383;-82
2021/04/19 00:51:38;;;;;;;1.50;1.23;;;22.40;50.00;;;;;;5020996;28;20450;-82
2021/04/19 00:54:08;;;;;;;2.20;1.57;;;22.40;50.10;;;;;;5021533;28;20419;-83
2021/04/19 00:56:34;;;;;;;1.47;1.10;;;22.40;50.10;;;;;;5037936;28;20372;-83
2021/04/19 00:59:00;;;;;;;1.73;1.27;;;22.40;50.10;;;;;;5020444;28;20426;-83
2021/04/19 01:01:30;;;;;;;1.70;1.37;;;22.40;50.10;;;;;;5021219;28;20403;-83
2021/04/19 01:03:56;;;;;;;1.90;1.40;;;22.40;50.10;;;;;;5037736;28;20164;-83
2021/04/19 01:06:22;;;;;;;1.80;1.20;;;22.40;50.10;;;;;;5037991;28;20399;-82
2021/04/19 01:08:48;;;;;;;2.00;1.50;;;22.40;50.10;;;;;;5020973;28;20430;-82
2021/04/19 01:11:14;;;;;;;1.33;0.80;;;22.40;50.10;;;;;;5037602;28;20191;-83
2021/04/19 01:13:40;;;;;;;1.17;1.07;;;22.40;50.10;;;;;;5036414;28;20159;-83
2021/04/19 01:16:06;;;;;;;2.30;2.10;;;22.30;50.00;;;;;;5037111;28;20216;-83
2021/04/19 01:18:31;;;;;;;1.57;1.40;;;22.40;50.10;;;;;;5037301;28;20144;-83
2021/04/19 01:20:58;;;;;;;1.80;1.60;;;22.30;50.10;;;;;;5006298;28;20416;-83
2021/04/19 01:23:24;;;;;;;2.70;2.50;;;22.30;50.00;;;;;;5017526;28;20145;-83
2021/04/19 01:25:51;;;;;;;1.20;1.10;;;22.30;50.10;;;;;;5016732;28;20420;-83
2021/04/19 01:28:20;;;;;;;1.50;1.40;;;22.30;50.10;;;;;;5017302;28;20674;-83
2021/04/19 01:30:51;;;;;;;1.50;1.23;;;22.30;50.10;;;;;;5016369;28;20673;-83
2021/04/19 01:33:18;;;;;;;2.10;1.33;;;22.30;50.10;;;;;;5017198;28;20412;-83
2021/04/19 01:35:45;;;;;;;1.50;1.30;;;22.30;50.10;;;;;;5015981;28;20468;-82
2021/04/19 01:38:12;;;;;;;3.70;1.80;;;22.30;50.10;;;;;;5017116;28;20384;-82
2021/04/19 01:40:39;;;;;;;1.50;1.03;;;22.30;50.10;;;;;;5016140;28;20392;-82
2021/04/19 01:43:08;;;;;;;1.70;1.30;;;22.30;50.10;;;;;;5016879;28;20460;-82
2021/04/19 01:45:33;;;;;;;1.40;1.17;;;22.30;50.10;;;;;;5016838;28;20376;-82
2021/04/19 01:48:00;;;;;;;1.97;1.43;;;22.30;50.10;;;;;;5016099;28;20411;-82
2021/04/19 01:50:28;;;;;;;1.63;1.30;;;22.30;50.10;;;;;;5016899;28;20415;-82
2021/04/19 01:52:57;;;;;;;1.47;1.30;;;22.20;50.00;;;;;;5016649;28;20420;-82
2021/04/19 01:55:26;;;;;;;1.53;1.27;;;22.30;50.10;;;;;;5016649;28;20453;-82
2021/04/19 01:58:09;;;;;;;1.60;1.20;;;22.20;50.00;;;;;;5015696;28;20392;-82
2021/04/19 02:00:37;;;;;;;1.13;0.93;;;22.20;50.00;;;;;;4999715;28;20460;-82
2021/04/19 02:03:35;;;;;;;2.40;1.57;;;22.20;50.10;;;;;;5015416;28;20404;-83
2021/04/19 02:06:06;;;;;;;1.80;1.50;;;22.20;50.10;;;;;;4940940;29;20449;-83
2021/04/19 02:08:55;;;;;;;1.40;1.10;;;22.20;50.10;;;;;;4957456;29;20464;-83
2021/04/19 02:11:51;;;;;;;1.47;1.20;;;22.20;50.10;;;;;;4941089;29;20511;-83
2021/04/19 02:14:17;;;;;;;1.40;1.20;;;22.20;50.10;;;;;;4957062;29;20399;-83
2021/04/19 02:16:56;;;;;;;1.43;1.23;;;22.20;50.20;;;;;;4957056;29;20402;-82
2021/04/19 02:19:41;;;;;;;1.47;1.37;;;22.20;50.20;;;;;;4957800;29;20220;-82
2021/04/19 02:22:25;;;;;;;1.60;1.20;;;22.20;50.20;;;;;;4976180;29;20393;-82
2021/04/19 02:25:04;;;;;;;2.03;1.13;;;22.20;50.20;;;;;;4960174;29;20398;-82
2021/04/19 02:27:35;;;;;;;1.70;1.30;;;22.20;50.20;;;;;;4959704;29;20406;-82
2021/04/19 02:30:04;;;;;;;1.40;1.00;;;22.10;50.10;;;;;;4959733;29;20414;-82
2021/04/19 02:32:35;;;;;;;1.50;1.40;;;22.20;50.20;;;;;;4967471;29;20437;-83
2021/04/19 02:35:08;;;;;;;1.50;1.30;;;22.20;50.20;;;;;;4967893;29;20424;-82
2021/04/19 02:37:36;;;;;;;1.40;1.30;;;22.20;50.20;;;;;;4959432;29;20477;-83
2021/04/19 02:40:05;;;;;;;1.40;1.20;;;22.10;50.10;;;;;;4953892;29;20443;-82
2021/04/19 02:42:39;;;;;;;1.77;1.50;;;22.10;50.10;;;;;;5006429;28;20402;-83
2021/04/19 02:45:08;;;;;;;1.40;1.23;;;22.10;50.10;;;;;;5020016;28;20407;-83
2021/04/19 02:47:37;;;;;;;1.40;1.20;;;22.10;50.20;;;;;;5028133;28;20398;-82
2021/04/19 02:50:10;;;;;;;2.17;1.40;;;22.10;50.10;;;;;;5038320;28;20399;-82
2021/04/19 02:52:36;;;;;;;1.50;1.27;;;22.10;50.10;;;;;;5025963;28;20704;-83
2021/04/19 02:55:04;;;;;;;1.60;1.10;;;22.10;50.10;;;;;;5042005;28;20409;-83
2021/04/19 02:57:36;;;;;;;1.97;1.37;;;22.10;50.10;;;;;;5044858;28;20398;-83
2021/04/19 03:00:04;;;;;;;1.30;1.20;;;22.20;50.20;;;;;;5038396;28;20388;-83
2021/04/19 03:02:32;;;;;;;1.40;1.20;;;22.10;50.10;;;;;;5034105;28;20402;-83
2021/04/19 03:04:59;;;;;;;2.30;1.33;;;22.10;50.20;;;;;;5052967;28;20392;-83
2021/04/19 03:07:34;;;;;;;1.90;1.13;;;22.10;50.10;;;;;;5030331;28;20417;-82
2021/04/19 03:10:07;;;;;;;1.10;1.00;;;22.10;50.10;;;;;;5039285;28;20417;-83
2021/04/19 03:12:37;;;;;;;2.53;1.37;;;22.10;50.10;;;;;;5055136;28;20428;-83
2021/04/19 03:15:10;;;;;;;1.10;1.00;;;22.10;50.10;;;;;;5041349;28;20425;-83
2021/04/19 03:17:37;;;;;;;1.83;1.43;;;22.10;50.20;;;;;;5026264;28;20437;-83
2021/04/19 03:20:17;;;;;;;1.63;1.23;;;22.10;50.20;;;;;;5006592;28;20419;-82
2021/04/19 03:22:49;;;;;;;1.63;1.50;;;22.10;50.10;;;;;;5027275;28;20411;-82
2021/04/19 03:25:16;;;;;;;1.63;1.20;;;22.10;50.20;;;;;;5062166;28;20411;-82
2021/04/19 03:27:45;;;;;;;1.47;1.13;;;22.10;50.20;;;;;;5041655;28;20395;-82
2021/04/19 03:30:14;;;;;;;1.07;0.93;;;22.10;50.20;;;;;;5061201;28;20394;-82
2021/04/19 03:32:47;;;;;;;1.90;1.30;;;22.10;50.20;;;;;;5067715;28;20654;-82
2021/04/19 03:35:18;;;;;;;1.77;1.50;;;22.10;50.20;;;;;;5045152;28;20455;-82
2021/04/19 03:37:46;;;;;;;1.20;1.10;;;22.10;50.20;;;;;;5062508;28;20383;-82
2021/04/19 03:40:12;;;;;;;1.93;1.70;;;22.10;50.20;;;;;;5068173;28;20394;-82
2021/04/19 03:42:39;;;;;;;1.37;1.13;;;22.10;50.20;;;;;;5058221;28;20405;-82
2021/04/19 03:45:07;;;;;;;1.40;1.30;;;22.10;50.20;;;;;;5066438;28;20386;-82
2021/04/19 03:47:36;;;;;;;1.57;1.10;;;22.10;50.20;;;;;;5046905;28;20478;-82
2021/04/19 03:50:03;;;;;;;1.70;1.40;;;22.10;50.20;;;;;;5064493;28;20389;-82
2021/04/19 03:52:36;;;;;;;1.60;1.50;;;22.00;50.20;;;;;;5061988;28;20423;-82
2021/04/19 03:55:06;;;;;;;1.30;1.17;;;22.00;50.20;;;;;;5063578;28;20386;-82
2021/04/19 03:57:34;;;;;;;1.57;1.17;;;22.00;50.20;;;;;;5062165;28;20387;-82
2021/04/19 04:00:05;;;;;;;1.63;1.10;;;22.00;50.20;;;;;;5049447;28;20442;-83
2021/04/19 04:02:34;;;;;;;2.00;1.43;;;22.00;50.20;;;;;;5042312;28;20404;-82
2021/04/19 04:05:01;;;;;;;1.60;1.30;;;22.00;50.20;;;;;;5064497;28;20385;-83
2021/04/19 04:07:28;;;;;;;1.87;1.10;;;22.00;50.30;;;;;;5071936;28;20393;-83
2021/04/19 04:09:58;;;;;;;1.20;1.00;;;22.10;50.30;;;;;;5049062;28;20401;-83
2021/04/19 04:12:24;;;;;;;2.30;2.00;;;22.00;50.30;;;;;;5042942;28;20433;-83
2021/04/19 04:14:54;;;;;;;1.20;1.10;;;22.00;50.30;;;;;;5043080;28;20391;-82
2021/04/19 04:17:20;;;;;;;1.30;1.20;;;22.00;50.30;;;;;;5044496;28;20470;-83
2021/04/19 04:19:51;;;;;;;1.33;0.97;;;22.10;50.40;;;;;;5066970;28;20413;-83
2021/04/19 04:22:17;;;;;;;1.40;1.10;;;22.00;50.30;;;;;;5041517;28;20410;-82
2021/04/19 04:24:44;;;;;;;1.50;1.17;;;22.00;50.30;;;;;;5062700;28;20382;-82
2021/04/19 04:27:10;;;;;;;1.30;1.17;;;21.90;50.30;;;;;;5059738;28;20386;-82
2021/04/19 04:29:38;;;;;;;1.40;1.20;;;22.00;50.30;;;;;;5068399;28;20393;-82
2021/04/19 04:32:05;;;;;;;1.57;1.10;;;21.90;50.20;;;;;;5044748;28;20437;-82
2021/04/19 04:34:31;;;;;;;1.30;1.17;;;22.00;50.30;;;;;;5063882;28;20422;-84
2021/04/19 04:36:57;;;;;;;1.27;1.10;;;21.90;50.30;;;;;;5052122;28;20456;-83
2021/04/19 04:39:23;;;;;;;1.40;1.13;;;21.90;50.30;;;;;;5044395;28;20422;-82
2021/04/19 04:41:49;;;;;;;1.53;1.20;;;21.90;50.30;;;;;;5045664;28;20303;-83
2021/04/19 04:44:41;;;;;;;1.80;1.40;;;21.90;50.30;;;;;;5063046;28;20397;-83
2021/04/19 04:47:32;;;;;;;1.17;1.00;;;22.00;50.30;;;;;;5060501;28;20166;-84
2021/04/19 04:50:14;;;;;;;1.30;1.20;;;21.90;50.20;;;;;;5061709;28;20401;-83
2021/04/19 04:53:04;;;;;;;1.50;1.40;;;22.00;50.30;;;;;;5036624;28;20426;-83
2021/04/19 04:55:32;;;;;;;1.60;1.40;;;22.00;50.80;;;;;;5037015;28;20401;-83
2021/04/19 04:58:01;;;;;;;1.70;1.23;;;22.00;50.20;;;;;;5041744;28;20429;-85
2021/04/19 05:00:29;;;;;;;1.20;1.10;;;22.00;50.20;;;;;;5040281;28;20406;-84
2021/04/19 05:02:56;;;;;;;1.23;0.97;;;22.00;50.10;;;;;;5041224;28;20469;-83
2021/04/19 05:05:21;;;;;;;1.40;1.03;;;22.00;50.10;;;;;;5046295;28;20402;-83
2021/04/19 05:07:48;;;;;;;2.00;1.37;;;22.00;50.10;;;;;;5063480;28;20398;-83
2021/04/19 05:10:14;;;;;;;1.33;1.10;;;22.00;50.00;;;;;;5060776;28;20163;-83
2021/04/19 05:12:42;;;;;;;1.70;1.50;;;22.00;50.00;;;;;;5044856;28;20431;-83
2021/04/19 05:15:12;;;;;;;1.63;1.10;;;22.10;50.00;;;;;;5047677;28;20437;-83
2021/04/19 05:17:42;;;;;;;1.20;0.93;;;22.10;50.00;;;;;;5045277;28;20422;-82
2021/04/19 05:20:10;;;;;;;1.30;1.10;;;22.10;50.00;;;;;;5063292;28;20603;-82
2021/04/19 05:22:41;;;;;;;1.30;1.20;;;22.10;50.00;;;;;;5045242;28;20440;-83
2021/04/19 05:25:10;;;;;;;1.37;1.10;;;22.10;50.00;;;;;;5059515;28;20513;-83
2021/04/19 05:27:37;;;;;;;1.60;1.10;;;22.10;49.90;;;;;;5045607;28;20425;-83
2021/04/19 05:30:04;;;;;;;1.27;1.10;;;22.10;49.90;;;;;;5062015;28;20424;-82
2021/04/19 05:32:30;;;;;;;1.50;1.30;;;22.10;49.90;;;;;;5059023;28;20437;-83
2021/04/19 05:35:01;;;;;;;1.20;1.10;;;22.10;49.90;;;;;;5075953;28;20401;-83
2021/04/19 05:37:27;;;;;;;1.40;1.20;;;22.10;49.90;;;;;;5075099;28;20440;-83
2021/04/19 05:39:53;;;;;;;1.50;1.40;;;22.10;49.90;;;;;;5057783;28;20390;-83
2021/04/19 05:42:20;;;;;;;1.40;1.27;;;22.10;49.90;;;;;;5075060;28;20385;-83
2021/04/19 05:44:46;;;;;;;1.50;1.00;;;22.10;49.90;;;;;;5046687;28;20422;-83
2021/04/19 05:47:13;;;;;;;1.30;1.20;;;22.10;49.90;;;;;;5055060;28;20474;-83
2021/04/19 05:49:39;;;;;;;1.83;1.20;;;22.10;49.90;;;;;;5037568;28;20156;-83
2021/04/19 05:52:07;;;;;;;1.27;1.10;;;22.10;49.90;;;;;;5055367;28;20493;-83
2021/04/19 05:54:35;;;;;;;1.40;1.13;;;22.10;49.80;;;;;;5038249;28;20423;-83
2021/04/19 05:57:51;;;;;;;1.50;1.17;;;22.10;49.80;;;;;;5054727;28;20398;-84
2021/04/19 06:00:37;;;;;;;1.40;1.20;;;22.10;49.80;;;;;;5002822;28;20389;-84
2021/04/19 06:03:25;;;;;;;1.30;1.20;;;22.10;49.90;;;;;;5031814;28;20474;-84
2021/04/19 06:06:11;;;;;;;5.27;3.50;;;22.10;50.00;;;;;;5055690;28;20367;-84
2021/04/19 06:09:07;;;;;;;2.53;1.60;;;22.20;50.10;;;;;;5038392;28;20383;-84
2021/04/19 06:11:51;;;;;;;1.57;1.43;;;22.20;50.10;;;;;;5037971;28;20453;-84
2021/04/19 06:14:23;;;;;;;2.10;1.60;;;22.20;50.10;;;;;;5037607;28;20393;-84
2021/04/19 06:16:50;;;;;;;2.67;1.60;;;22.10;50.30;;;;;;5043775;28;20414;-85
2021/04/19 06:19:18;;;;;;;1.47;1.20;;;22.10;50.20;;;;;;5039146;28;20415;-85
2021/04/19 06:21:47;;;;;;;2.60;1.10;;;22.20;50.30;;;;;;5053318;28;20443;-85
2021/04/19 06:24:12;;;;;;;1.30;1.00;;;22.20;50.20;;;;;;5039175;28;20398;-85
2021/04/19 06:26:39;;;;;;;1.50;1.30;;;22.30;50.20;;;;;;5036394;28;20414;-85
2021/04/19 06:29:08;;;;;;;1.30;1.10;;;22.30;50.10;;;;;;5025482;28;20234;-83
2021/04/19 06:31:39;;;;;;;1.40;1.30;;;22.40;50.10;;;;;;5057326;28;20464;-84
2021/04/19 06:34:12;;;;;;;1.20;1.07;;;22.40;50.00;;;;;;5034380;28;20409;-84
2021/04/19 06:36:43;;;;;;;1.43;1.33;;;22.40;50.00;;;;;;5058082;28;20398;-85
2021/04/19 06:39:27;;;;;;;1.33;1.00;;;22.40;49.90;;;;;;5041887;28;20412;-85
2021/04/19 06:41:53;;;;;;;1.87;1.00;;;22.40;50.00;;;;;;5053169;28;20406;-85
2021/04/19 06:44:28;;;;;;;1.67;1.30;;;22.40;49.90;;;;;;5042596;28;20397;-86
2021/04/19 06:46:55;;;;;;;1.77;1.37;;;22.50;50.00;;;;;;5030269;28;20502;-85
2021/04/19 06:49:21;;;;;;;1.40;1.10;;;22.50;50.00;;;;;;5042750;28;20417;-85
2021/04/19 06:51:52;;;;;;;1.20;1.00;;;22.50;49.90;;;;;;5084036;28;20451;-83
2021/04/19 06:54:18;;;;;;;1.67;1.10;;;22.50;49.90;;;;;;5043669;28;20502;-85
2021/04/19 06:56:46;;;;;;;2.20;1.30;;;22.50;49.90;;;;;;5040802;28;20430;-86
2021/04/19 06:59:18;;;;;;;1.43;1.10;;;22.60;50.00;;;;;;5065941;28;20159;-85
2021/04/19 07:01:48;;;;;;;1.73;1.17;;;22.60;50.00;;;;;;5034417;28;20429;-89
2021/04/19 07:04:25;;;;;;;3.70;1.20;;;22.60;49.90;;;;;;5032903;28;20394;-90
2021/04/19 07:06:51;;;;;;;1.93;1.20;;;22.60;49.90;;;;;;5036514;28;20415;-85
2021/04/19 07:09:29;;;;;;;2.00;1.50;;;22.60;49.80;;;;;;5062324;28;20399;-85
2021/04/19 07:11:58;;;;;;;2.07;1.40;;;22.70;49.90;;;;;;5051403;28;20461;-85
2021/04/19 07:14:33;;;;;;;1.50;1.00;;;22.70;49.90;;;;;;5051084;28;20523;-84
2021/04/19 07:20:24;;;;;;;1.60;1.10;;;22.70;49.80;;;;;;5051451;28;20416;-84
2021/04/19 07:22:52;;;;;;;1.20;1.00;;;22.70;49.90;;;;;;5029274;28;20406;-85
2021/04/19 07:25:37;;;;;;;1.23;1.03;;;22.70;49.90;;;;;;5020723;28;20434;-85
2021/04/19 07:28:06;;;;;;;1.40;1.10;;;22.70;49.90;;;;;;5025176;28;20499;-87
2021/04/19 07:30:34;;;;;;;1.00;0.90;;;22.80;50.00;;;;;;5034667;28;20470;-86
2021/04/19 07:33:00;;;;;;;1.40;1.20;;;22.80;49.90;;;;;;5044706;28;20464;-88
2021/04/19 07:35:30;;;;;;;1.60;1.10;;;22.80;50.00;;;;;;5055748;28;20390;-88
2021/04/19 07:37:58;;;;;;;2.33;1.10;;;22.80;49.90;;;;;;5040626;28;20494;-88
2021/04/19 07:40:33;;;;;;;1.60;1.07;;;22.80;49.90;;;;;;5037242;28;20429;-87
2021/04/19 07:43:18;;;;;;;1.93;1.10;;;22.80;49.90;;;;;;5037462;28;20408;-88
2021/04/19 07:46:11;;;;;;;2.60;1.13;;;22.90;49.90;;;;;;5033185;28;20410;-89
2021/04/19 07:48:44;;;;;;;1.30;1.20;;;22.80;49.80;;;;;;5019433;28;20401;-89
2021/04/19 07:51:35;;;;;;;1.30;1.13;;;22.80;49.90;;;;;;5033661;28;20418;-88
2021/04/19 07:54:15;;;;;;;2.40;1.00;;;22.80;49.80;;;;;;5034566;28;20414;-88
2021/04/19 07:57:05;;;;;;;1.20;1.10;;;22.90;49.90;;;;;;5037881;28;20413;-89
2021/04/19 07:59:32;;;;;;;2.03;0.93;;;22.90;49.90;;;;;;5036545;28;20430;-88
2021/04/19 08:02:04;;;;;;;1.43;1.23;;;22.80;49.90;;;;;;5040394;28;20405;-88
2021/04/19 08:05:05;;;;;;;1.47;1.20;;;22.90;49.90;;;;;;5032345;28;20422;-84
2021/04/19 08:07:32;;;;;;;1.33;1.00;;;22.90;49.90;;;;;;5040135;28;20412;-84
2021/04/19 08:10:03;;;;;;;2.30;1.00;;;22.90;49.90;;;;;;5037658;28;20399;-85
2021/04/19 08:12:32;;;;;;;1.80;1.20;;;22.90;49.90;;;;;;5052767;28;20652;-85
2021/04/19 08:15:03;;;;;;;1.93;1.60;;;22.90;49.90;;;;;;5054156;28;20398;-83
2021/04/19 08:17:30;;;;;;;2.30;1.30;;;22.90;49.90;;;;;;5037381;28;20402;-84
2021/04/19 08:19:57;;;;;;;1.40;1.17;;;22.90;49.90;;;;;;5039555;28;20418;-82
2021/04/19 08:22:28;;;;;;;1.33;0.90;;;23.00;49.90;;;;;;5056414;28;20509;-84
2021/04/19 08:25:22;;;;;;;1.37;1.10;;;23.00;50.00;;;;;;5042432;28;20409;-84
2021/04/19 08:27:59;;;;;;;1.90;1.03;;;23.00;50.00;;;;;;5075799;28;20416;-83
2021/04/19 08:30:25;;;;;;;2.07;1.10;;;23.00;50.00;;;;;;5043489;28;20481;-83
2021/04/19 08:32:53;;;;;;;1.47;1.10;;;23.00;50.00;;;;;;5062460;28;20446;-83
2021/04/19 08:35:21;;;;;;;1.83;1.30;;;23.00;49.90;;;;;;5059914;28;20390;-83
2021/04/19 08:37:49;;;;;;;1.10;0.80;;;23.00;50.00;;;;;;5061187;28;20394;-84
2021/04/19 08:40:19;;;;;;;1.70;1.10;;;23.00;50.00;;;;;;5037376;28;20420;-85
2021/04/19 08:42:46;;;;;;;1.30;1.00;;;23.00;49.90;;;;;;5039053;28;20510;-84
2021/04/19 08:45:49;;;;;;;1.47;0.97;;;23.00;50.00;;;;;;5046783;28;20402;-87
2021/04/19 08:48:27;;;;;;;1.27;1.00;;;23.10;50.00;;;;;;5043023;28;20405;-83
2021/04/19 08:50:56;;;;;;;1.20;1.00;;;23.00;49.90;;;;;;5042936;28;20409;-82
2021/04/19 08:53:23;;;;;;;1.57;1.13;;;23.00;50.00;;;;;;5056075;28;20411;-84
2021/04/19 09:02:36;;;;;;;1.23;1.00;;;23.10;50.00;;;;;;4977434;28;20428;-83
2021/04/19 09:05:07;;;;;;;1.50;1.10;;;23.00;50.10;;;;;;4985421;28;20417;-84
2021/04/19 09:07:34;;;;;;;1.00;0.83;;;23.00;50.00;;;;;;4982654;28;20429;-84
2021/04/19 09:10:11;;;;;;;1.27;0.93;;;23.10;50.10;;;;;;4981675;28;20406;-84
2021/04/19 09:12:37;;;;;;;1.50;1.03;;;23.10;50.10;;;;;;4981730;28;20477;-84
2021/04/19 09:15:14;;;;;;;1.30;1.00;;;23.10;50.20;;;;;;4982331;28;20401;-84
2021/04/19 09:17:41;;;;;;;1.40;1.03;;;23.10;50.00;;;;;;4977769;28;20417;-84
2021/04/19 09:20:13;;;;;;;1.10;0.87;;;23.10;50.10;;;;;;4972795;28;20512;-84
2021/04/19 09:22:40;;;;;;;1.60;1.20;;;23.10;50.10;;;;;;4980492;28;20485;-84
2021/04/19 09:25:13;;;;;;;1.10;0.90;;;23.10;50.10;;;;;;4984129;28;20511;-84
2021/04/19 09:27:47;;;;;;;1.50;1.00;;;23.10;50.70;;;;;;4980944;28;20394;-84
2021/04/19 09:30:23;;;;;;;1.60;1.10;;;23.10;50.00;;;;;;4978244;28;20429;-83
2021/04/19 09:33:09;;;;;;;1.40;1.03;;;23.10;50.10;;;;;;4982359;28;20455;-84
2021/04/19 09:35:41;;;;;;;1.20;0.90;;;23.10;50.10;;;;;;5014848;28;20554;-85
2021/04/19 09:38:12;;;;;;;2.30;1.10;;;23.10;50.00;;;;;;5058397;28;20465;-84
2021/04/19 09:40:48;;;;;;;1.40;0.90;;;22.90;49.80;;;;;;5060232;28;20407;-85
2021/04/19 09:43:49;;;;;;;1.27;1.00;;;23.10;50.00;;;;;;5058929;28;20405;-84
2021/04/19 09:46:18;;;;;;;1.10;0.90;;;23.10;50.00;;;;;;5046490;28;20421;-84
2021/04/19 09:49:02;;;;;;;1.90;1.13;;;23.10;50.00;;;;;;5058552;28;20417;-85
2021/04/19 09:51:37;;;;;;;1.30;1.00;;;23.10;50.00;;;;;;5055963;28;20429;-85
2021/04/19 09:54:11;;;;;;;1.17;1.00;;;23.10;50.00;;;;;;5058066;28;20398;-85
2021/04/19 09:56:57;;;;;;;2.00;1.20;;;23.10;50.00;;;;;;5055323;28;20386;-84
2021/04/19 09:59:27;;;;;;;2.03;1.20;;;23.10;50.00;;;;;;5055658;28;20390;-84
2021/04/19 10:01:58;;;;;;;1.50;1.10;;;23.20;50.10;;;;;;5034480;28;20456;-85
2021/04/19 10:04:24;;;;;;;1.20;1.00;;;23.10;50.00;;;;;;5034757;28;20625;-85
2021/04/19 10:06:58;;;;;;;1.63;1.10;;;23.10;50.00;;;;;;5038094;28;20410;-84
2021/04/19 10:09:26;;;;;;;1.80;1.27;;;23.10;50.00;;;;;;5055297;28;20468;-85
2021/04/19 10:11:58;;;;;;;5.03;1.90;;;23.10;50.00;;;;;;5034885;28;20441;-85
2021/04/19 10:14:26;;;;;;;1.20;0.90;;;23.10;50.00;;;;;;5037763;28;20413;-85
2021/04/19 10:16:55;;;;;;;1.20;1.07;;;23.10;50.00;;;;;;5038078;28;20394;-85
2021/04/19 10:19:29;;;;;;;1.40;1.20;;;23.10;50.00;;;;;;5037400;28;20414;-85
2021/04/19 10:22:05;;;;;;;1.50;1.40;;;23.20;50.00;;;;;;5051819;28;20460;-85
2021/04/19 10:24:33;;;;;;;1.60;1.10;;;23.20;50.00;;;;;;5036968;28;20422;-83
2021/04/19 10:27:00;;;;;;;5.00;1.20;;;23.10;49.90;;;;;;5055438;28;20398;-84
2021/04/19 10:29:28;;;;;;;2.70;1.37;;;23.10;50.00;;;;;;5029503;28;20419;-86
2021/04/19 10:31:59;;;;;;;1.40;0.90;;;23.10;50.00;;;;;;5035652;28;20524;-87
2021/04/19 10:34:27;;;;;;;1.30;0.93;;;23.20;50.10;;;;;;5029857;28;20443;-83
2021/04/19 10:36:58;;;;;;;1.27;0.90;;;23.10;50.00;;;;;;5035937;28;20398;-85
2021/04/19 10:39:30;;;;;;;1.20;1.03;;;23.20;50.00;;;;;;5034926;28;20410;-85
2021/04/19 10:41:58;;;;;;;1.13;1.03;;;23.10;49.90;;;;;;5027413;28;20448;-85
2021/04/19 10:44:40;;;;;;;1.30;1.10;;;23.10;50.00;;;;;;5049686;28;20395;-86
2021/04/19 10:47:08;;;;;;;3.63;1.00;;;23.10;49.90;;;;;;5035216;28;20406;-86
2021/04/19 10:49:35;;;;;;;1.47;1.10;;;23.10;49.90;;;;;;5032029;28;20406;-86
2021/04/19 10:52:07;;;;;;;3.10;1.33;;;23.10;50.10;;;;;;5036298;28;20448;-86
2021/04/19 10:54:36;;;;;;;1.70;1.60;;;23.10;49.90;;;;;;5035571;28;20408;-86
2021/04/19 10:57:04;;;;;;;3.53;1.50;;;23.10;50.00;;;;;;5036219;28;20486;-86
2021/04/19 10:59:35;;;;;;;8.73;2.70;;;23.00;49.90;;;;;;5032517;28;20432;-85
2021/04/19 11:02:05;;;;;;;2.63;1.90;;;23.10;49.90;;;;;;5031614;28;20469;-86
2021/04/19 11:04:32;;;;;;;3.57;2.07;;;23.00;49.90;;;;;;5031297;28;20535;-84
2021/04/19 11:07:23;;;;;;;3.27;1.90;;;23.00;49.90;;;;;;5035704;28;20410;-85
2021/04/19 11:10:16;;;;;;;3.17;1.90;;;23.00;49.90;;;;;;5037204;28;20411;-85
2021/04/19 11:13:02;;;;;;;2.50;1.93;;;23.00;49.90;;;;;;5037946;28;20434;-86
2021/04/19 11:15:46;;;;;;;6.63;1.90;;;23.00;50.10;;;;;;5056800;28;20402;-86
2021/04/19 11:18:28;;;;;;;3.57;2.37;;;22.90;50.00;;;;;;5037818;28;20429;-85
2021/04/19 11:20:56;;;;;;;3.30;2.07;;;22.90;50.00;;;;;;5040009;28;20438;-86
2021/04/19 11:23:29;;;;;;;6.60;2.20;;;22.90;50.00;;;;;;5056675;28;20398;-86
2021/04/19 11:25:58;;;;;;;3.40;1.90;;;23.00;50.10;;;;;;5056953;28;20383;-86
2021/04/19 11:28:30;;;;;;;4.33;2.10;;;22.90;50.10;;;;;;5035235;28;20395;-85
2021/04/19 11:31:11;;;;;;;3.07;1.67;;;22.90;50.10;;;;;;5039445;28;20540;-87
2021/04/19 11:33:37;;;;;;;3.80;2.57;;;22.80;50.10;;;;;;5056281;28;20430;-87
2021/04/19 11:36:09;;;;;;;3.30;2.47;;;22.80;50.20;;;;;;5072223;28;20398;-87
2021/04/19 11:38:40;;;;;;;5.27;2.63;;;22.80;50.10;;;;;;5039454;28;20171;-86
2021/04/19 11:41:10;;;;;;;3.43;2.20;;;22.80;50.20;;;;;;5036040;28;20461;-87
2021/04/19 11:43:50;;;;;;;3.83;2.47;;;22.80;50.70;;;;;;5039409;28;20395;-85
2021/04/19 11:46:18;;;;;;;3.10;2.20;;;22.80;50.10;;;;;;5047248;28;20381;-86
2021/04/19 11:48:47;;;;;;;4.30;2.67;;;22.80;50.20;;;;;;5016384;28;20394;-86
2021/04/19 11:51:16;;;;;;;4.07;2.50;;;22.80;50.20;;;;;;5032360;28;20469;-86
2021/04/19 11:53:44;;;;;;;3.53;2.17;;;22.80;50.20;;;;;;5036744;28;20406;-84
2021/04/19 11:56:11;;;;;;;5.83;3.80;;;22.80;50.30;;;;;;5041620;28;20389;-84
2021/04/19 11:58:45;;;;;;;4.80;2.93;;;22.80;50.20;;;;;;5060166;28;20421;-85
2021/04/19 12:01:13;;;;;;;5.03;2.90;;;22.90;50.30;;;;;;5057181;28;20627;-86
2021/04/19 12:03:40;;;;;;;4.47;2.40;;;22.80;50.20;;;;;;5053866;28;20454;-85
2021/04/19 12:06:09;;;;;;;4.53;3.00;;;22.80;50.20;;;;;;5043016;28;20611;-85
2021/04/19 12:08:36;;;;;;;5.00;3.07;;;22.80;50.20;;;;;;5054235;28;20409;-86
2021/04/19 12:11:04;;;;;;;5.77;3.17;;;22.80;50.30;;;;;;5039868;28;20406;-85
2021/04/19 12:13:30;;;;;;;6.50;3.47;;;22.80;50.20;;;;;;5032305;28;20399;-85
2021/04/19 12:15:56;;;;;;;5.37;3.47;;;22.80;50.70;;;;;;5039831;28;20418;-83
2021/04/19 12:18:23;;;;;;;6.10;3.57;;;22.80;50.40;;;;;;5056987;28;20186;-86
2021/04/19 12:20:52;;;;;;;7.50;4.23;;;22.80;50.30;;;;;;5038137;28;20175;-84
2021/04/19 12:23:20;;;;;;;5.47;3.40;;;22.80;50.40;;;;;;5050579;28;20441;-85
2021/04/19 12:25:56;;;;;;;9.70;5.10;;;22.80;50.30;;;;;;5039606;28;20433;-84
2021/04/19 12:28:23;;;;;;;6.97;4.50;;;22.80;50.30;;;;;;5037085;28;20394;-85
2021/04/19 12:30:51;;;;;;;8.30;5.17;;;22.80;50.40;;;;;;5054777;28;20425;-85
2021/04/19 12:33:18;;;;;;;12.67;6.13;;;22.80;50.60;;;;;;5022265;28;20568;-84
2021/04/19 12:39:06;;;;;;;14.83;7.00;;;22.80;50.30;;;;;;5056447;28;20374;-84
2021/04/19 12:41:34;;;;;;;15.03;6.60;;;22.70;50.50;;;;;;5038223;28;20424;-86
2021/04/19 12:44:02;;;;;;;12.90;7.87;;;22.80;50.80;;;;;;5035982;28;20410;-85
2021/04/19 12:46:30;;;;;;;12.77;8.30;;;22.70;50.40;;;;;;5039049;28;20414;-84
2021/04/19 12:48:57;;;;;;;14.07;9.30;;;22.80;50.50;;;;;;5053339;28;20525;-85
2021/04/19 12:51:35;;;;;;;14.90;8.77;;;22.70;50.50;;;;;;5052017;28;20439;-85
2021/04/19 12:54:03;;;;;;;13.40;8.93;;;22.70;50.60;;;;;;5037755;28;20444;-85
2021/04/19 12:56:28;;;;;;;14.83;9.70;;;22.70;50.50;;;;;;5035762;28;20155;-85
2021/04/19 12:58:55;;;;;;;22.80;9.73;;;22.70;51.00;;;;;;5049994;28;20410;-85
2021/04/19 13:01:21;;;;;;;16.00;7.80;;;22.70;50.60;;;;;;5042087;28;20403;-85
2021/04/19 13:03:47;;;;;;;16.13;9.67;;;22.70;50.90;;;;;;5034229;28;20407;-85
2021/04/19 13:06:12;;;;;;;11.30;8.20;;;22.70;50.70;;;;;;5036574;28;20160;-85
2021/04/19 13:08:38;;;;;;;15.57;9.87;;;22.70;50.90;;;;;;5037229;28;20215;-85
2021/04/19 13:11:04;;;;;;;13.63;9.03;;;22.70;50.60;;;;;;5054233;28;20252;-85
2021/04/19 13:13:30;;;;;;;12.80;8.40;;;22.70;50.80;;;;;;5029121;28;20175;-85
2021/04/19 13:15:55;;;;;;;12.80;7.80;;;22.70;50.70;;;;;;5036625;28;20175;-85
2021/04/19 13:18:21;;;;;;;12.10;8.53;;;22.70;50.50;;;;;;5037878;28;20171;-86
2021/04/19 13:20:47;;;;;;;13.27;8.90;;;22.70;50.70;;;;;;5035687;28;20385;-85
2021/04/19 13:23:14;;;;;;;18.17;9.57;;;22.70;50.40;;;;;;5035978;28;20172;-85